Time;durP1;ratioP1;P1;durP2;ratioP2;P2;SDS_P1;SDS_P2;PMS_P1;PMS_P2;Temp;Humidity;BMP_temperature;BMP_pressure;BME280_temperature;BME280_humidity;BME280_pressure;Samples;Min_cycle;Max_cycle;Signal;HPM_P1;HPM_P2
2023/11/08 00:03:49;;;;;;;0.50;0.43;;;;;;;8.95;79.24;150922.50;10407679;28;20568;-74
2023/11/08 00:08:51;;;;;;;0.30;0.20;;;;;;;8.96;79.07;150926.34;10375527;28;20046;-74
2023/11/08 00:13:54;;;;;;;0.70;0.20;;;;;;;8.93;79.31;150918.59;10375728;28;20593;-73
2023/11/08 00:18:56;;;;;;;0.30;0.30;;;;;;;8.87;79.43;150903.13;10375119;28;20096;-74
2023/11/08 00:24:01;;;;;;;0.60;0.30;;;;;;;8.75;80.90;150873.47;10375193;28;20572;-74
2023/11/08 00:29:02;;;;;;;0.22;0.22;;;;;;;8.66;86.47;150848.97;10374064;28;20310;-74
2023/11/08 00:34:04;;;;;;;0.35;0.25;;;;;;;8.49;92.58;150806.44;10374192;28;20544;-74
2023/11/08 00:39:07;;;;;;;1.08;0.35;;;;;;;8.51;92.86;150811.59;10373378;28;20042;-74
2023/11/08 00:44:09;;;;;;;1.85;0.50;;;;;;;8.39;94.13;150781.94;10373498;28;20452;-74
2023/11/08 00:49:12;;;;;;;0.85;0.43;;;;;;;8.46;92.25;150798.72;10375426;28;20069;-74
2023/11/08 00:54:15;;;;;;;1.52;0.40;;;;;;;8.36;91.61;150774.16;10374993;28;20046;-74
2023/11/08 00:59:18;;;;;;;0.63;0.57;;;;;;;8.35;91.63;150771.59;10373264;28;20088;-74
2023/11/08 01:04:19;;;;;;;0.35;0.25;;;;;;;8.35;90.67;150772.88;10374962;28;20056;-74
2023/11/08 01:09:21;;;;;;;1.10;0.32;;;;;;;8.22;91.23;150738.06;10374254;28;20038;-74
2023/11/08 01:14:23;;;;;;;0.47;0.43;;;;;;;8.37;89.63;150775.47;10374358;28;20104;-74
2023/11/08 01:19:26;;;;;;;1.75;0.55;;;;;;;8.45;88.48;150796.09;10373949;28;20037;-74
2023/11/08 01:24:28;;;;;;;1.17;0.55;;;;;;;8.42;88.83;150789.69;10405237;28;20520;-74
2023/11/08 01:29:30;;;;;;;1.13;0.38;;;;;;;8.47;88.36;150801.28;10372604;28;20046;-74
2023/11/08 01:34:32;;;;;;;0.20;0.20;;;;;;;8.49;88.03;150807.72;10413168;28;20060;-74
2023/11/08 01:39:33;;;;;;;0.50;0.32;;;;;;;8.64;87.49;150843.84;10381713;28;20045;-74
2023/11/08 01:44:35;;;;;;;0.70;0.30;;;;;;;8.65;86.17;150847.69;10380991;28;20533;-74
2023/11/08 01:49:38;;;;;;;0.55;0.50;;;;;;;8.67;85.54;150851.53;10380145;28;20061;-74
2023/11/08 01:54:49;;;;;;;0.30;0.30;;;;;;;8.76;83.67;150874.75;10363529;28;20096;-73
2023/11/08 01:59:51;;;;;;;1.08;0.50;;;;;;;8.60;85.06;150834.81;10412561;28;20038;-73
2023/11/08 02:04:54;;;;;;;1.08;0.30;;;;;;;8.71;83.78;150861.88;10379034;28;20459;-72
2023/11/08 02:16:43;;;;;;;0.70;0.43;;;;;;;8.82;80.64;150890.25;10379860;28;20549;-72
2023/11/08 02:21:45;;;;;;;0.50;0.20;;;;;;;8.80;81.04;150886.34;10380030;28;20062;-72
2023/11/08 02:26:48;;;;;;;1.23;0.35;;;;;;;8.85;79.31;150897.97;10379589;28;20042;-72
2023/11/08 02:31:51;;;;;;;0.20;0.20;;;;;;;8.89;78.65;150908.28;10379302;28;20130;-72
2023/11/08 02:36:53;;;;;;;0.70;0.32;;;;;;;8.93;77.99;150917.31;10377605;28;20050;-72
2023/11/08 02:41:55;;;;;;;1.08;0.52;;;;;;;8.81;78.05;150887.69;10377021;28;20564;-72
2023/11/08 02:46:57;;;;;;;1.35;0.40;;;;;;;8.69;79.28;150856.72;10379304;28;20092;-72
2023/11/08 02:51:59;;;;;;;1.40;0.32;;;;;;;8.73;79.08;150868.34;10377544;28;20133;-72
2023/11/08 02:57:01;;;;;;;0.82;0.38;;;;;;;8.88;76.24;150904.44;10378377;28;20073;-72
2023/11/08 03:02:04;;;;;;;0.55;0.22;;;;;;;8.92;75.65;150914.75;10376648;28;20420;-72
2023/11/08 03:07:06;;;;;;;0.28;0.22;;;;;;;8.96;74.80;150926.34;10376406;28;20103;-72
2023/11/08 03:12:08;;;;;;;1.48;0.70;;;;;;;8.98;74.48;150930.19;10377679;28;20485;-71
2023/11/08 03:17:10;;;;;;;0.60;0.30;;;;;;;8.85;75.82;150897.97;10376025;28;20148;-72
2023/11/08 03:22:13;;;;;;;2.42;0.30;;;;;;;8.78;75.89;150879.94;10377109;28;20404;-71
2023/11/08 03:27:15;;;;;;;0.95;0.30;;;;;;;8.90;74.88;150909.56;10377290;28;20121;-71
2023/11/08 03:32:17;;;;;;;2.22;0.30;;;;;;;8.96;74.58;150926.34;10376759;28;20050;-71
2023/11/08 03:37:19;;;;;;;1.73;0.40;;;;;;;9.00;74.07;150936.66;10376813;28;20104;-71
2023/11/08 03:42:25;;;;;;;0.75;0.38;;;;;;;8.80;75.94;150886.34;10377293;28;20124;-71
2023/11/08 03:47:27;;;;;;;0.80;0.40;;;;;;;8.90;74.61;150910.88;10376628;28;20108;-71
2023/11/08 03:52:30;;;;;;;1.13;0.38;;;;;;;8.94;74.95;150921.22;10375731;28;20347;-71
2023/11/08 03:57:32;;;;;;;0.75;0.20;;;;;;;8.87;74.72;150903.13;10408164;28;20057;-73
2023/11/08 04:02:35;;;;;;;5.43;0.60;;;;;;;8.91;74.51;150912.19;10375632;28;20433;-71
2023/11/08 04:07:37;;;;;;;1.23;0.40;;;;;;;9.02;74.41;150941.81;10374162;28;20050;-70
2023/11/08 04:12:39;;;;;;;2.13;0.85;;;;;;;8.94;75.15;150919.88;10374263;28;20165;-71
2023/11/08 04:17:41;;;;;;;0.77;0.32;;;;;;;8.94;75.40;150921.22;10375323;28;20465;-71
2023/11/08 04:22:43;;;;;;;0.45;0.30;;;;;;;8.96;75.42;150925.06;10375249;28;20117;-71
2023/11/08 04:27:45;;;;;;;0.50;0.35;;;;;;;8.96;75.64;150926.34;10375278;28;20056;-71
2023/11/08 04:32:47;;;;;;;1.27;0.47;;;;;;;8.86;75.67;150899.28;10374765;28;20042;-71
2023/11/08 04:37:49;;;;;;;1.83;0.50;;;;;;;8.77;76.77;150877.38;10374801;28;20045;-71
2023/11/08 04:42:50;;;;;;;1.90;0.40;;;;;;;8.88;76.29;150905.72;10374553;28;20038;-71
2023/11/08 04:47:52;;;;;;;2.85;0.40;;;;;;;8.76;76.96;150876.03;10374463;28;20050;-71
2023/11/08 04:52:54;;;;;;;0.50;0.28;;;;;;;8.58;78.05;150830.91;10407088;28;20052;-71
2023/11/08 04:57:56;;;;;;;1.73;0.38;;;;;;;8.51;79.50;150811.59;10374011;28;20120;-71
2023/11/08 05:02:58;;;;;;;3.50;0.82;;;;;;;8.43;80.44;150790.97;10374288;28;20490;-70
2023/11/08 05:07:59;;;;;;;1.05;0.50;;;;;;;8.42;80.91;150788.41;10385628;28;20545;-71
2023/11/08 05:13:02;;;;;;;1.48;0.43;;;;;;;8.46;80.98;150800.00;10388605;28;20449;-71
2023/11/08 05:18:03;;;;;;;2.20;0.40;;;;;;;8.45;80.92;150797.38;10385896;28;20053;-71
2023/11/08 05:23:06;;;;;;;1.10;0.40;;;;;;;8.43;81.13;150792.25;10387195;28;20085;-71
2023/11/08 05:28:08;;;;;;;1.08;0.40;;;;;;;8.50;80.63;150809.00;10388824;28;20477;-71
2023/11/08 05:33:11;;;;;;;1.50;0.40;;;;;;;8.33;81.67;150766.44;10402981;28;20441;-71
2023/11/08 05:38:12;;;;;;;0.90;0.40;;;;;;;8.38;81.07;150779.38;10386814;28;20112;-71
2023/11/08 05:43:14;;;;;;;0.75;0.45;;;;;;;8.37;80.89;150776.81;10386937;28;20056;-71
2023/11/08 05:48:16;;;;;;;1.38;0.30;;;;;;;8.44;80.25;150794.81;10387333;28;20458;-72
2023/11/08 05:53:20;;;;;;;0.98;0.40;;;;;;;8.49;79.97;150807.72;10386628;28;20437;-71
2023/11/08 05:58:22;;;;;;;0.70;0.40;;;;;;;8.53;79.03;150818.03;10386449;28;20073;-70
2023/11/08 06:03:24;;;;;;;1.58;0.40;;;;;;;8.51;79.20;150811.59;10418623;28;20173;-71
2023/11/08 06:08:26;;;;;;;1.80;0.40;;;;;;;8.47;79.61;150802.56;10385355;28;20417;-71
2023/11/08 06:13:28;;;;;;;1.33;0.30;;;;;;;8.49;79.40;150807.72;10386719;28;20080;-71
2023/11/08 06:18:30;;;;;;;1.15;0.30;;;;;;;8.62;78.25;150838.66;10381816;28;20033;-72
2023/11/08 06:23:33;;;;;;;1.08;0.30;;;;;;;8.61;78.35;150836.09;10380979;28;20034;-71
2023/11/08 06:28:34;;;;;;;2.08;0.65;;;;;;;8.54;78.16;150820.66;10379722;28;20096;-71
2023/11/08 06:33:39;;;;;;;0.95;0.20;;;;;;;8.54;78.47;150820.66;10378119;28;20052;-71
2023/11/08 06:38:41;;;;;;;0.63;0.30;;;;;;;8.63;77.33;150841.22;10378987;28;20449;-71
2023/11/08 06:43:43;;;;;;;0.88;0.40;;;;;;;8.71;77.44;150861.88;10378922;28;20045;-71
2023/11/08 06:48:46;;;;;;;0.95;0.40;;;;;;;8.77;77.24;150877.38;10378730;28;20100;-71
2023/11/08 06:53:49;;;;;;;1.02;0.30;;;;;;;8.90;75.92;150910.88;10378235;28;20128;-71
2023/11/08 06:58:50;;;;;;;0.80;0.40;;;;;;;8.97;75.62;150927.63;10378337;28;20046;-71
2023/11/08 07:03:52;;;;;;;0.82;0.25;;;;;;;8.94;76.49;150921.22;10377117;28;20132;-71
2023/11/08 07:08:54;;;;;;;1.45;0.32;;;;;;;9.08;75.12;150956.03;10377806;28;20191;-71
2023/11/08 07:13:56;;;;;;;0.63;0.30;;;;;;;9.12;74.76;150966.34;10378108;28;20038;-72
2023/11/08 07:18:58;;;;;;;0.35;0.25;;;;;;;9.14;74.88;150970.19;10384236;23;20485;-72
2023/11/08 07:24:00;;;;;;;0.28;0.10;;;;;;;9.18;74.23;150980.53;10342955;28;20097;-72
2023/11/08 07:29:05;;;;;;;0.73;0.40;;;;;;;9.18;74.77;150980.53;10337851;28;20125;-74
2023/11/08 07:34:07;;;;;;;0.43;0.30;;;;;;;9.32;73.93;151016.63;10339075;28;20421;-73
2023/11/08 07:39:15;;;;;;;2.75;0.30;;;;;;;9.31;74.68;151015.34;10338150;28;20053;-73
2023/11/08 07:44:30;;;;;;;1.00;0.20;;;;;;;9.45;73.12;151050.16;10342670;28;20042;-72
2023/11/08 07:49:32;;;;;;;0.73;0.17;;;;;;;9.39;74.29;151033.41;10339008;28;20070;-72
2023/11/08 07:54:35;;;;;;;1.38;0.25;;;;;;;9.28;74.71;151006.31;10339303;28;20054;-74
2023/11/08 07:59:37;;;;;;;0.20;0.20;;;;;;;9.32;74.53;151016.63;10341952;28;20042;-72
2023/11/08 08:04:38;;;;;;;0.73;0.25;;;;;;;9.37;74.08;151028.22;10341826;28;20074;-73
2023/11/08 08:09:40;;;;;;;0.13;0.13;;;;;;;9.38;74.62;151032.09;10340988;28;20042;-73
2023/11/08 08:14:43;;;;;;;1.48;0.30;;;;;;;9.48;73.35;151057.94;10340579;28;20042;-73
2023/11/08 08:19:46;;;;;;;0.30;0.20;;;;;;;9.53;74.34;151070.81;10342181;28;20038;-74
2023/11/08 08:24:48;;;;;;;0.40;0.20;;;;;;;9.59;74.41;151085.00;10340527;28;20043;-73
2023/11/08 08:29:50;;;;;;;0.40;0.20;;;;;;;9.57;73.87;151079.84;10342564;28;20050;-72
2023/11/08 08:34:52;;;;;;;0.70;0.20;;;;;;;9.73;73.98;151119.81;10338823;28;20046;-73
2023/11/08 08:39:54;;;;;;;0.35;0.10;;;;;;;9.75;73.13;151125.00;10336402;28;20061;-73
2023/11/08 08:44:56;;;;;;;0.95;0.30;;;;;;;9.76;72.96;151128.88;10337559;28;20046;-72
2023/11/08 08:49:58;;;;;;;0.30;0.10;;;;;;;9.78;73.05;151132.72;10340198;28;20104;-73
2023/11/08 08:55:00;;;;;;;0.30;0.20;;;;;;;9.86;72.36;151153.38;10337861;28;20054;-73
2023/11/08 09:00:03;;;;;;;3.33;0.52;;;;;;;9.85;72.64;151150.81;10336793;28;20509;-72
2023/11/08 09:05:05;;;;;;;0.68;0.35;;;;;;;10.00;71.81;151189.50;10336710;28;20043;-73
2023/11/08 09:10:08;;;;;;;0.20;0.20;;;;;;;10.17;70.61;151230.81;10338298;28;20444;-72
2023/11/08 09:15:13;;;;;;;0.43;0.38;;;;;;;10.24;69.97;151250.25;10337698;28;20088;-73
2023/11/08 09:20:15;;;;;;;0.90;0.28;;;;;;;10.34;70.32;151276.06;10337927;28;20049;-73
2023/11/08 09:25:17;;;;;;;5.20;0.45;;;;;;;10.56;69.68;151331.56;10336157;28;20167;-72
2023/11/08 09:30:19;;;;;;;0.93;0.40;;;;;;;10.73;68.94;151372.91;10337325;28;20073;-72
2023/11/08 09:35:22;;;;;;;0.50;0.20;;;;;;;10.61;69.35;151344.47;10339724;28;20046;-73
2023/11/08 09:40:24;;;;;;;0.75;0.20;;;;;;;10.59;69.27;151339.31;10338018;28;20045;-73
2023/11/08 09:45:30;;;;;;;0.68;0.30;;;;;;;10.59;68.42;151338.03;10339351;28;20070;-72
2023/11/08 09:50:33;;;;;;;;;;;;;;;10.56;68.40;151330.28;10338139;28;20458;-72
2023/11/08 09:55:35;;;;;;;0.82;0.30;;;;;;;10.58;67.90;151336.75;10347019;28;19921;-73
2023/11/08 10:00:40;;;;;;;1.13;0.30;;;;;;;10.47;68.78;151308.31;10342363;28;20422;-73
2023/11/08 10:05:44;;;;;;;1.33;0.30;;;;;;;10.65;68.35;151352.22;10344301;28;20042;-73
2023/11/08 10:10:48;;;;;;;0.55;0.20;;;;;;;10.64;68.46;151350.94;10342454;28;20128;-74
2023/11/08 10:15:56;;;;;;;0.57;0.20;;;;;;;10.78;69.13;151387.09;10344523;28;20077;-73
2023/11/08 10:21:15;;;;;;;1.58;0.40;;;;;;;10.85;68.29;151405.19;10343451;28;20054;-73
2023/11/08 10:26:22;;;;;;;0.65;0.40;;;;;;;10.77;69.55;151384.53;10342458;28;20494;-72
2023/11/08 10:31:34;;;;;;;0.60;0.20;;;;;;;10.92;67.38;151420.66;10342740;28;20093;-73
2023/11/08 10:36:37;;;;;;;0.88;0.30;;;;;;;10.81;67.60;151394.84;10344137;28;20046;-73
2023/11/08 10:41:41;;;;;;;0.30;0.20;;;;;;;11.06;66.57;151458.09;10378883;28;20127;-72
2023/11/08 10:46:43;;;;;;;0.25;0.20;;;;;;;11.00;66.43;151442.63;10372395;28;20065;-72
2023/11/08 10:51:45;;;;;;;0.68;0.32;;;;;;;10.93;67.58;151423.25;10358021;28;20494;-72
2023/11/08 10:56:50;;;;;;;0.43;0.30;;;;;;;11.03;67.88;151450.41;10341668;28;20098;-71
2023/11/08 11:01:53;;;;;;;0.45;0.30;;;;;;;10.99;67.11;151440.06;10342601;28;20485;-72
2023/11/08 11:06:55;;;;;;;0.60;0.20;;;;;;;11.02;66.78;151447.81;10379020;28;20452;-73
2023/11/08 11:12:07;;;;;;;0.90;0.30;;;;;;;10.88;66.91;151411.63;10371401;28;20487;-72
2023/11/08 11:17:21;;;;;;;0.93;0.40;;;;;;;10.86;67.64;151407.75;10340132;28;20073;-72
2023/11/08 11:22:23;;;;;;;0.20;0.20;;;;;;;10.91;68.00;151418.09;10367667;28;20072;-72
2023/11/08 11:27:37;;;;;;;1.65;0.35;;;;;;;11.01;67.00;151443.91;10380095;28;20050;-72
2023/11/08 11:32:47;;;;;;;0.55;0.30;;;;;;;11.01;66.09;151445.19;10381939;28;20383;-73
2023/11/08 11:38:13;;;;;;;0.82;0.28;;;;;;;11.07;67.29;151459.44;10380796;28;20049;-73
2023/11/08 11:43:30;;;;;;;0.50;0.38;;;;;;;11.02;64.83;151447.81;10381730;28;20057;-72
2023/11/08 11:48:33;;;;;;;1.40;0.20;;;;;;;11.00;65.07;151442.63;10378712;28;20521;-72
2023/11/08 11:53:37;;;;;;;0.47;0.17;;;;;;;10.93;65.72;151424.53;10377611;28;20116;-72
2023/11/08 11:58:38;;;;;;;0.30;0.20;;;;;;;10.97;65.64;151433.56;10338448;28;20062;-72
2023/11/08 12:03:42;;;;;;;1.65;0.10;;;;;;;10.94;66.32;151425.88;10337868;28;20052;-72
2023/11/08 12:08:45;;;;;;;0.40;0.22;;;;;;;11.02;65.07;151447.81;10340709;28;20450;-72
2023/11/08 12:13:51;;;;;;;1.05;0.22;;;;;;;11.07;65.05;151460.72;10338825;28;20069;-72
2023/11/08 12:18:53;;;;;;;;;;;;;;;11.06;64.15;151458.09;10338568;28;20097;-73
2023/11/08 12:23:55;;;;;;;0.77;0.38;;;;;;;11.14;63.90;151477.50;10336224;28;19928;-73
2023/11/08 12:28:57;;;;;;;0.20;0.20;;;;;;;11.12;64.86;151472.34;10338966;28;20098;-72
2023/11/08 12:33:59;;;;;;;0.55;0.20;;;;;;;11.09;64.37;151465.88;10337868;28;20490;-72
2023/11/08 12:39:05;;;;;;;0.30;0.30;;;;;;;11.03;65.40;151450.41;10338062;28;20054;-72
2023/11/08 12:44:07;;;;;;;0.40;0.20;;;;;;;10.93;64.57;151424.53;10337609;28;20038;-72
2023/11/08 12:49:17;;;;;;;0.82;0.50;;;;;;;10.93;64.84;151424.53;10337874;28;20042;-72
2023/11/08 12:54:20;;;;;;;0.80;0.28;;;;;;;11.00;65.25;151442.63;10338302;28;20129;-72
2023/11/08 12:59:22;;;;;;;0.50;0.30;;;;;;;10.85;66.94;151403.91;10337803;28;20053;-73
2023/11/08 13:04:24;;;;;;;0.47;0.20;;;;;;;10.75;69.08;151379.31;10337374;28;20049;-72
2023/11/08 13:09:28;;;;;;;0.47;0.30;;;;;;;10.78;69.39;151385.81;10339948;28;20088;-72
2023/11/08 13:14:30;;;;;;;1.17;0.30;;;;;;;10.95;65.98;151429.72;10355415;28;20486;-72
2023/11/08 13:19:32;;;;;;;1.17;0.25;;;;;;;11.05;65.39;151454.25;10371298;22;20050;-72
2023/11/08 13:24:35;;;;;;;0.80;0.30;;;;;;;11.17;65.72;151483.97;10374661;28;20046;-73
2023/11/08 13:29:37;;;;;;;0.10;0.10;;;;;;;11.23;64.50;151499.47;10382897;28;20038;-72
2023/11/08 13:34:39;;;;;;;0.40;0.10;;;;;;;11.14;65.44;151477.50;10383450;28;20049;-72
2023/11/08 13:39:41;;;;;;;1.25;0.22;;;;;;;11.05;64.33;151455.53;10381920;28;20042;-72
2023/11/08 13:44:43;;;;;;;0.47;0.30;;;;;;;11.08;66.06;151463.31;10380623;28;20104;-72
2023/11/08 13:49:45;;;;;;;0.95;0.40;;;;;;;11.02;65.96;151447.81;10381660;28;20037;-72
2023/11/08 13:54:47;;;;;;;0.10;0.10;;;;;;;10.99;65.16;151438.78;10381525;28;20121;-72
2023/11/08 13:59:48;;;;;;;1.23;0.22;;;;;;;10.89;64.46;151412.91;10381983;28;20457;-72
2023/11/08 14:05:00;;;;;;;0.20;0.10;;;;;;;10.80;63.82;151390.94;10381804;28;20046;-73
2023/11/08 14:10:03;;;;;;;0.20;0.17;;;;;;;10.59;64.79;151339.31;10382223;28;20449;-72
2023/11/08 14:15:05;;;;;;;0.57;0.30;;;;;;;10.55;66.10;151329.00;10379495;28;20038;-72
2023/11/08 14:20:08;;;;;;;0.55;0.30;;;;;;;10.28;67.93;151260.56;10402390;28;20396;-75
2023/11/08 14:25:10;;;;;;;0.38;0.28;;;;;;;10.32;67.19;151270.91;10392151;28;20088;-72
2023/11/08 14:30:12;;;;;;;0.15;0.13;;;;;;;10.34;67.51;151274.75;10420072;28;20046;-72
2023/11/08 14:35:14;;;;;;;0.80;0.22;;;;;;;10.28;67.95;151259.28;10397626;28;20050;-72
2023/11/08 14:40:17;;;;;;;0.50;0.38;;;;;;;10.27;68.43;151256.66;10378990;28;20041;-72
2023/11/08 14:45:19;;;;;;;0.88;0.30;;;;;;;10.28;68.80;151259.28;10379656;28;20042;-72
2023/11/08 14:50:21;;;;;;;0.63;0.30;;;;;;;10.26;69.42;151254.09;10382037;28;20390;-72
2023/11/08 14:55:23;;;;;;;0.63;0.40;;;;;;;10.23;68.75;151247.63;10377655;28;20127;-72
2023/11/08 15:00:25;;;;;;;0.68;0.30;;;;;;;10.19;69.36;151236.00;10378720;28;20038;-73
2023/11/08 15:05:28;;;;;;;0.55;0.20;;;;;;;10.12;69.47;151219.22;10378783;28;20046;-72
2023/11/08 15:10:32;;;;;;;2.15;0.30;;;;;;;10.00;69.81;151188.22;10376957;28;20524;-73
2023/11/08 15:15:34;;;;;;;0.43;0.40;;;;;;;9.97;70.15;151180.50;10377440;28;20100;-73
2023/11/08 15:20:37;;;;;;;0.70;0.30;;;;;;;9.89;70.18;151159.84;10377180;28;20048;-72
2023/11/08 15:25:39;;;;;;;0.77;0.40;;;;;;;9.81;70.82;151141.78;10382476;28;20103;-72
2023/11/08 15:30:44;;;;;;;1.00;0.30;;;;;;;9.65;71.90;151099.19;10378283;28;20092;-72
2023/11/08 15:35:46;;;;;;;0.68;0.50;;;;;;;9.64;72.88;151096.59;10402692;28;20386;-72
2023/11/08 15:40:48;;;;;;;1.02;0.40;;;;;;;9.62;72.67;151092.75;10419782;28;20474;-72
2023/11/08 15:45:52;;;;;;;0.95;0.50;;;;;;;9.66;72.27;151103.09;10418918;28;20048;-71
2023/11/08 15:50:55;;;;;;;1.42;0.63;;;;;;;9.48;73.09;151057.94;10418314;28;20128;-70
2023/11/08 15:55:58;;;;;;;4.10;0.70;;;;;;;9.43;73.98;151043.69;10418273;28;20045;-71
2023/11/08 16:01:00;;;;;;;1.05;0.60;;;;;;;9.24;75.26;150997.25;10418422;28;20447;-72
2023/11/08 16:06:03;;;;;;;0.93;0.70;;;;;;;9.28;75.30;151007.59;10418628;28;20083;-73
2023/11/08 16:11:05;;;;;;;1.55;0.50;;;;;;;9.26;75.28;151002.44;10418859;28;20128;-71
2023/11/08 16:16:07;;;;;;;0.75;0.50;;;;;;;9.17;76.68;150979.25;10418380;28;20045;-73
2023/11/08 16:21:10;;;;;;;1.08;0.68;;;;;;;9.06;77.69;150952.13;10417589;28;20033;-72
2023/11/08 16:26:11;;;;;;;1.33;0.80;;;;;;;9.22;75.72;150992.13;10417341;28;20393;-71
2023/11/08 16:31:13;;;;;;;0.98;0.50;;;;;;;9.04;77.16;150947.00;10416984;28;20045;-71
2023/11/08 16:36:35;;;;;;;1.67;0.50;;;;;;;8.92;77.68;150914.75;10417260;28;20412;-72
2023/11/08 16:41:40;;;;;;;1.88;0.70;;;;;;;8.92;77.76;150916.03;10416567;28;20059;-72
2023/11/08 16:46:43;;;;;;;1.17;0.65;;;;;;;8.86;77.64;150900.56;10417861;28;20477;-72
2023/11/08 16:51:47;;;;;;;1.48;0.75;;;;;;;8.69;78.58;150858.00;10418147;28;20037;-72
2023/11/08 16:56:48;;;;;;;1.27;0.70;;;;;;;8.62;78.73;150838.66;10417613;28;20045;-72
2023/11/08 17:01:50;;;;;;;2.20;0.70;;;;;;;8.58;79.05;150830.91;10417835;28;20064;-73
2023/11/08 17:06:52;;;;;;;1.15;0.80;;;;;;;8.75;77.85;150873.47;10418032;28;20076;-71
2023/11/08 17:11:54;;;;;;;1.75;0.75;;;;;;;8.66;77.17;150850.25;10417214;28;20056;-72
2023/11/08 17:16:56;;;;;;;1.95;0.80;;;;;;;8.50;77.88;150810.31;10416182;28;20049;-72
2023/11/08 17:21:59;;;;;;;1.27;0.50;;;;;;;8.30;78.91;150759.97;10416401;28;20034;-72
2023/11/08 17:27:01;;;;;;;0.75;0.65;;;;;;;8.32;78.07;150765.16;10415254;28;20456;-71
2023/11/08 17:32:03;;;;;;;0.98;0.60;;;;;;;8.37;77.32;150776.81;10417141;28;20125;-73
2023/11/08 17:37:05;;;;;;;1.60;0.70;;;;;;;8.31;77.52;150762.56;10415978;28;20042;-71
2023/11/08 17:42:07;;;;;;;2.35;0.80;;;;;;;8.29;77.32;150756.13;10414509;28;20080;-72
2023/11/08 17:47:09;;;;;;;0.90;0.70;;;;;;;8.29;77.94;150757.41;10415105;28;20078;-71
2023/11/08 17:52:16;;;;;;;0.82;0.60;;;;;;;8.27;76.63;150752.22;10416393;28;20029;-72
2023/11/08 17:57:18;;;;;;;2.03;0.70;;;;;;;8.22;76.38;150738.06;10416311;28;20485;-73
2023/11/08 18:02:20;;;;;;;0.65;0.50;;;;;;;8.04;76.68;150694.25;10416521;28;20041;-72
2023/11/08 18:07:22;;;;;;;0.93;0.60;;;;;;;8.22;76.08;150738.06;10416820;28;20045;-71
2023/11/08 18:12:24;;;;;;;1.40;0.70;;;;;;;8.24;74.94;150744.53;10418033;28;20048;-71
2023/11/08 18:17:26;;;;;;;1.90;0.68;;;;;;;8.20;74.32;150732.94;10422843;28;20072;-72
2023/11/08 18:22:32;;;;;;;1.50;0.70;;;;;;;8.34;73.97;150769.00;10422379;28;20049;-72
2023/11/08 18:27:34;;;;;;;1.38;0.70;;;;;;;8.26;73.79;150749.66;10422978;28;20049;-72
2023/11/08 18:32:37;;;;;;;1.50;0.70;;;;;;;8.06;75.11;150699.44;10421878;28;20413;-72
2023/11/08 18:37:40;;;;;;;0.93;0.70;;;;;;;8.00;75.34;150682.66;10424056;28;20103;-72
2023/11/08 18:42:42;;;;;;;1.27;0.82;;;;;;;7.57;77.29;150575.75;10406530;28;20045;-73
2023/11/08 18:47:43;;;;;;;2.58;0.80;;;;;;;7.33;78.74;150513.88;10421803;28;20127;-72
2023/11/08 18:52:46;;;;;;;1.02;0.63;;;;;;;7.23;79.59;150488.16;10422779;28;20095;-72
2023/11/08 18:57:48;;;;;;;1.58;0.80;;;;;;;7.16;80.18;150471.38;10422685;28;20049;-72
2023/11/08 19:02:51;;;;;;;1.15;0.75;;;;;;;7.08;81.24;150452.09;10422010;28;20042;-72
2023/11/08 19:07:53;;;;;;;1.10;0.90;;;;;;;6.89;82.21;150403.16;10420675;28;20053;-73
2023/11/08 19:12:57;;;;;;;1.33;0.80;;;;;;;7.08;82.15;150452.09;10422525;28;20091;-72
2023/11/08 19:17:59;;;;;;;1.50;0.73;;;;;;;7.01;82.89;150434.06;10420230;28;20140;-73
2023/11/08 19:23:01;;;;;;;2.20;0.80;;;;;;;6.78;84.17;150376.13;10422479;28;20073;-74
2023/11/08 19:28:16;;;;;;;2.22;1.15;;;;;;;6.62;84.95;150333.63;10422159;28;20049;-72
2023/11/08 19:33:18;;;;;;;4.03;1.50;;;;;;;6.56;85.71;150320.78;10423345;28;20124;-74
2023/11/08 19:38:21;;;;;;;3.88;1.40;;;;;;;6.46;85.79;150293.72;10423108;28;20053;-74
2023/11/08 19:43:24;;;;;;;3.67;1.42;;;;;;;6.43;85.46;150287.31;10420553;28;20054;-74
2023/11/08 19:48:26;;;;;;;2.00;1.00;;;;;;;6.28;85.97;150249.97;10422198;28;20042;-74
2023/11/08 19:53:28;;;;;;;2.53;1.42;;;;;;;6.20;86.12;150228.13;10422542;28;20116;-75
2023/11/08 19:58:30;;;;;;;2.05;0.95;;;;;;;6.28;86.13;150248.69;10423286;28;20047;-74
2023/11/08 20:03:31;;;;;;;1.75;1.10;;;;;;;6.43;86.39;150287.31;10419656;28;20115;-74
2023/11/08 20:08:33;;;;;;;2.10;1.50;;;;;;;6.17;86.65;150220.41;10420821;28;20053;-74
2023/11/08 20:13:35;;;;;;;2.88;1.10;;;;;;;6.07;87.08;150195.94;10419456;28;20041;-75
2023/11/08 20:18:37;;;;;;;2.47;1.10;;;;;;;5.95;88.44;150165.06;10417057;28;20095;-73
2023/11/08 20:23:39;;;;;;;1.92;0.98;;;;;;;5.92;89.14;150158.63;10419715;28;20064;-74
2023/11/08 20:28:41;;;;;;;2.53;1.00;;;;;;;6.24;89.35;150238.38;10419149;28;20073;-74
2023/11/08 20:33:42;;;;;;;1.48;1.10;;;;;;;6.13;88.81;150211.38;10418870;28;20157;-74
2023/11/08 20:38:44;;;;;;;2.72;1.65;;;;;;;6.06;88.88;150194.66;10417957;28;20053;-75
2023/11/08 20:43:46;;;;;;;2.33;1.20;;;;;;;5.80;90.27;150127.72;10419251;28;20462;-75
2023/11/08 20:48:48;;;;;;;3.60;1.48;;;;;;;5.48;91.80;150046.66;10420136;28;20115;-73
2023/11/08 20:53:50;;;;;;;3.15;1.60;;;;;;;5.35;93.54;150014.50;10417801;28;20147;-73
2023/11/08 20:58:52;;;;;;;5.43;1.58;;;;;;;5.43;93.36;150035.09;10420253;28;20041;-75
2023/11/08 21:03:57;;;;;;;2.80;0.95;;;;;;;5.32;93.30;150006.81;10418932;28;20040;-74
2023/11/08 21:08:59;;;;;;;3.17;1.27;;;;;;;5.19;93.45;149974.66;10420835;28;20048;-73
2023/11/08 21:14:02;;;;;;;2.55;1.30;;;;;;;5.07;93.97;149945.09;10420574;28;20045;-74
2023/11/08 21:19:04;;;;;;;1.73;1.00;;;;;;;4.93;95.15;149907.81;10421777;28;20048;-73
2023/11/08 21:24:06;;;;;;;1.33;1.05;;;;;;;4.86;94.82;149891.09;10420691;28;20076;-73
2023/11/08 21:29:08;;;;;;;2.08;1.17;;;;;;;4.90;94.68;149901.38;10422016;28;20128;-74
2023/11/08 21:34:10;;;;;;;3.13;1.60;;;;;;;4.86;95.23;149889.81;10421839;28;20049;-75
2023/11/08 21:39:12;;;;;;;1.75;0.98;;;;;;;4.94;95.41;149911.66;10420529;28;20052;-74
2023/11/08 21:44:14;;;;;;;1.85;1.33;;;;;;;4.83;94.81;149882.13;10416872;28;20049;-74
2023/11/08 21:49:18;;;;;;;2.25;1.67;;;;;;;4.69;95.37;149848.72;10420592;28;20049;-75
2023/11/08 21:54:20;;;;;;;1.75;1.40;;;;;;;4.73;95.20;149858.94;10424684;28;20540;-74
2023/11/08 21:59:21;;;;;;;2.85;1.80;;;;;;;5.02;93.13;149932.25;10422425;28;20099;-74
2023/11/08 22:04:23;;;;;;;4.22;1.67;;;;;;;4.77;94.86;149867.94;10422288;28;20115;-74
2023/11/08 22:09:25;;;;;;;3.65;1.90;;;;;;;4.67;94.51;149842.25;10422932;28;20377;-72
2023/11/08 22:14:27;;;;;;;2.65;1.50;;;;;;;4.50;95.26;149801.13;10424127;28;20046;-74
2023/11/08 22:19:29;;;;;;;1.83;1.20;;;;;;;4.26;97.58;149740.75;10423373;28;20421;-71
2023/11/08 22:24:33;;;;;;;1.90;1.23;;;;;;;4.39;97.17;149772.88;10422651;28;20037;-71
2023/11/08 22:29:34;;;;;;;3.15;1.80;;;;;;;4.24;97.73;149735.59;10421536;28;20056;-71
2023/11/08 22:34:36;;;;;;;1.98;1.40;;;;;;;3.93;100.00;149655.97;10421996;28;20038;-72
2023/11/08 22:39:38;;;;;;;2.58;1.42;;;;;;;3.88;100.00;149644.41;10420892;28;20447;-72
2023/11/08 22:44:40;;;;;;;2.92;1.77;;;;;;;3.86;100.00;149638.00;10420899;28;20049;-71
2023/11/08 22:49:42;;;;;;;2.28;1.13;;;;;;;3.96;100.00;149663.69;10421244;28;20045;-73
2023/11/08 22:54:44;;;;;;;2.65;1.52;;;;;;;4.20;100.00;149725.31;10421559;28;20041;-70
2023/11/08 22:59:46;;;;;;;3.25;1.30;;;;;;;3.93;100.00;149657.22;10419800;28;20416;-72
2023/11/08 23:04:48;;;;;;;3.47;1.90;;;;;;;3.96;100.00;149664.97;10420322;28;20041;-72
2023/11/08 23:09:50;;;;;;;2.08;1.08;;;;;;;3.75;100.00;149611.00;10419908;28;20116;-70
2023/11/08 23:14:52;;;;;;;2.67;1.30;;;;;;;3.79;100.00;149621.28;10420047;28;20120;-71
2023/11/08 23:20:04;;;;;;;1.40;1.15;;;;;;;3.87;100.00;149641.84;10420067;28;20136;-71
2023/11/08 23:25:07;;;;;;;1.08;0.98;;;;;;;3.93;100.00;149655.97;10419601;28;20451;-71
2023/11/08 23:30:09;;;;;;;2.95;1.02;;;;;;;3.97;100.00;149666.25;10421342;28;20404;-71
2023/11/08 23:35:14;;;;;;;2.28;1.27;;;;;;;4.25;100.00;149738.19;10419702;28;20033;-71